createdAt,value
2017-11-25T05:15:13.093Z,6.12
2017-11-25T05:16:17.820Z,5.96
2017-11-25T05:17:22.597Z,6.04
2017-11-25T05:18:27.371Z,6.23
2017-11-25T05:19:32.247Z,6.34
2017-11-25T05:20:37.539Z,6.24
2017-11-25T05:21:42.335Z,6.25
2017-11-25T05:22:47.053Z,6.02
2017-11-25T05:23:51.854Z,6.27
2017-11-25T05:24:56.643Z,6.39
2017-11-25T05:26:01.405Z,6.30
2017-11-25T05:27:06.696Z,6.26
2017-11-25T05:28:11.475Z,6.34
2017-11-25T05:29:16.418Z,6.23
2017-11-25T05:30:21.207Z,6.33
2017-11-25T05:31:25.986Z,6.36
2017-11-25T05:32:30.654Z,6.44
2017-11-25T05:33:35.665Z,6.46
2017-11-25T05:34:40.341Z,6.50
2017-11-25T05:35:45.259Z,6.53
2017-11-25T05:36:50.032Z,6.40
2017-11-25T05:37:55.046Z,6.20
2017-11-25T05:39:00.004Z,6.18
2017-11-25T05:40:05.055Z,6.08
2017-11-25T05:41:10.010Z,6.24
2017-11-25T05:42:14.914Z,6.36
2017-11-25T05:43:19.818Z,6.28
2017-11-25T05:44:24.633Z,6.25
2017-11-25T05:45:29.568Z,6.30
2017-11-25T05:46:35.294Z,6.12
2017-11-25T05:47:40.064Z,6.31
2017-11-25T05:48:45.819Z,6.23
2017-11-25T05:49:50.622Z,6.20
2017-11-25T05:50:55.465Z,6.21
2017-11-25T05:52:00.219Z,6.28
2017-11-25T05:53:05.319Z,6.20
2017-11-25T05:54:09.953Z,6.25
2017-11-25T05:55:14.727Z,6.15
2017-11-25T05:56:19.501Z,6.11
2017-11-25T05:57:24.161Z,6.29
2017-11-25T05:58:28.939Z,6.35
2017-11-25T05:59:33.696Z,6.26
2017-11-25T06:00:38.515Z,6.23
2017-11-25T06:01:43.168Z,6.16
2017-11-25T06:02:48.025Z,6.20
2017-11-25T06:03:53.142Z,6.09
2017-11-25T06:04:57.925Z,6.14
2017-11-25T06:06:02.796Z,6.07
2017-11-25T06:07:07.602Z,6.12
2017-11-25T06:08:12.665Z,6.15
2017-11-25T06:09:17.400Z,6.13
2017-11-25T06:10:22.477Z,6.19
2017-11-25T06:11:27.231Z,6.19
2017-11-25T06:12:32.022Z,6.07
2017-11-25T06:13:36.814Z,6.29
2017-11-25T06:14:41.632Z,6.25
2017-11-25T06:15:46.504Z,6.17
2017-11-25T06:16:51.590Z,6.28
2017-11-25T06:17:56.390Z,6.24
2017-11-25T06:19:01.158Z,6.08
2017-11-25T06:20:05.925Z,6.11
2017-11-25T06:21:10.699Z,6.09
2017-11-25T06:22:15.697Z,6.03
2017-11-25T06:23:20.765Z,6.21
2017-11-25T06:24:25.550Z,6.29
2017-11-25T06:25:30.389Z,6.27
2017-11-25T06:26:35.365Z,6.10
2017-11-25T06:27:40.152Z,6.14
2017-11-25T06:28:45.003Z,6.05
2017-11-25T06:29:50.101Z,5.95
2017-11-25T06:30:54.945Z,5.80
2017-11-25T06:31:59.813Z,5.74
2017-11-25T06:33:04.597Z,5.94
2017-11-25T06:34:09.406Z,5.80
2017-11-25T06:35:14.399Z,5.93
2017-11-25T06:36:19.580Z,5.89
2017-11-25T06:37:24.481Z,5.89
2017-11-25T06:38:29.248Z,5.91
2017-11-25T06:39:34.145Z,5.98
2017-11-25T06:40:38.939Z,6.02
2017-11-25T06:41:43.871Z,5.92
2017-11-25T06:42:49.086Z,5.94
2017-11-25T06:43:53.911Z,5.83
2017-11-25T06:44:58.750Z,5.71
2017-11-25T06:46:03.631Z,5.74
2017-11-25T06:47:08.557Z,5.59
2017-11-25T06:48:13.363Z,5.36
2017-11-25T06:49:18.173Z,5.27
2017-11-25T06:50:23.035Z,5.64
2017-11-25T06:51:27.865Z,5.39
2017-11-25T06:52:32.770Z,5.48
2017-11-25T06:53:37.660Z,5.49
2017-11-25T06:54:42.487Z,5.67
2017-11-25T06:55:47.251Z,5.69
2017-11-25T06:56:52.109Z,5.63
2017-11-25T06:57:56.927Z,5.83
2017-11-25T06:59:01.852Z,5.87
2017-11-25T07:00:06.870Z,6.00
2017-11-25T07:01:12.070Z,5.72
2017-11-25T07:02:16.919Z,5.51
2017-11-25T07:03:21.810Z,5.53
2017-11-25T07:04:26.645Z,5.66
2017-11-25T07:05:31.414Z,5.58
2017-11-25T07:06:36.191Z,5.32
2017-11-25T07:07:41.232Z,5.45
2017-11-25T07:08:46.007Z,5.68
2017-11-25T07:09:50.835Z,5.53
2017-11-25T07:10:55.655Z,5.37
2017-11-25T07:12:00.432Z,5.31
2017-11-25T07:13:05.202Z,5.21
2017-11-25T07:14:10.327Z,5.35
2017-11-25T07:15:15.146Z,5.48
2017-11-25T07:16:19.959Z,5.29
2017-11-25T07:17:24.684Z,5.10
2017-11-25T07:18:29.299Z,5.07
2017-11-25T07:19:34.062Z,5.21
2017-11-25T07:20:38.686Z,4.98
2017-11-25T07:21:43.321Z,5.22
2017-11-25T07:22:48.062Z,5.34
2017-11-25T07:23:52.811Z,5.55
2017-11-25T07:24:57.570Z,5.62
2017-11-25T07:26:02.636Z,5.59
2017-11-25T07:27:07.436Z,5.65
2017-11-25T07:28:12.452Z,5.20
2017-11-25T07:29:17.156Z,5.36
2017-11-25T07:30:21.893Z,5.68
2017-11-25T07:31:26.601Z,5.74
2017-11-25T07:32:32.154Z,5.61
2017-11-25T07:33:36.944Z,5.72
2017-11-25T07:34:41.605Z,5.69
2017-11-25T07:35:46.321Z,5.46
2017-11-25T07:36:51.061Z,5.58
2017-11-25T07:37:56.579Z,5.14
2017-11-25T07:39:01.561Z,5.17
2017-11-25T07:40:06.175Z,5.35
2017-11-25T07:41:10.800Z,5.36
2017-11-25T07:42:15.461Z,5.41
2017-11-25T07:43:20.188Z,5.46
2017-11-25T07:44:24.898Z,5.40
2017-11-25T07:45:29.885Z,5.29
2017-11-25T07:46:34.932Z,5.03
2017-11-25T07:47:39.583Z,5.01
2017-11-25T07:48:44.294Z,5.26
2017-11-25T07:49:49.018Z,5.37
2017-11-25T07:50:53.745Z,5.59
2017-11-25T07:51:58.852Z,5.61
2017-11-25T07:53:03.543Z,5.73
2017-11-25T07:54:08.269Z,5.48
2017-11-25T07:55:12.960Z,5.19
2017-11-25T07:56:17.643Z,4.92
2017-11-25T07:57:22.362Z,5.33
2017-11-25T07:58:27.847Z,5.52
2017-11-25T07:59:32.590Z,5.34
2017-11-25T08:00:37.313Z,5.55
2017-11-25T08:01:42.093Z,5.58
2017-11-25T08:02:46.798Z,5.57
2017-11-25T08:03:51.575Z,5.45
2017-11-25T08:04:56.631Z,5.47
2017-11-25T08:06:01.415Z,5.61
2017-11-25T08:07:06.163Z,5.48
2017-11-25T08:08:10.907Z,5.65
2017-11-25T08:09:15.657Z,5.77
2017-11-25T08:10:20.473Z,5.41
2017-11-25T08:11:25.638Z,5.07
2017-11-25T08:12:30.380Z,5.03
2017-11-25T08:13:35.156Z,5.15
2017-11-25T08:14:39.888Z,5.47
2017-11-25T08:15:44.587Z,5.37
2017-11-25T08:16:49.539Z,5.56
2017-11-25T08:17:54.513Z,5.34
2017-11-25T08:18:59.331Z,5.42
2017-11-25T08:20:04.050Z,5.20
2017-11-25T08:21:08.751Z,5.39
2017-11-25T08:22:13.677Z,5.21
2017-11-25T08:23:18.383Z,5.33
2017-11-25T08:24:23.096Z,5.57
2017-11-25T08:25:27.907Z,5.71
2017-11-25T08:26:32.683Z,5.58
2017-11-25T08:27:37.423Z,5.63
2017-11-25T08:28:42.147Z,5.49
2017-11-25T08:29:47.324Z,5.37
2017-11-25T08:30:52.022Z,5.62
2017-11-25T08:31:56.717Z,5.46
2017-11-25T08:33:02.299Z,5.48
2017-11-25T08:34:07.148Z,5.43
2017-11-25T08:35:11.826Z,5.31
2017-11-25T08:36:17.045Z,5.30
2017-11-25T08:37:21.704Z,5.41
2017-11-25T08:38:26.327Z,5.71
2017-11-25T08:39:31.011Z,5.79
2017-11-25T08:40:35.776Z,5.57
2017-11-25T08:41:40.470Z,5.71
2017-11-25T08:42:45.666Z,5.65
2017-11-25T08:43:50.383Z,5.68
2017-11-25T08:44:55.153Z,5.55
2017-11-25T08:45:59.849Z,5.30
2017-11-25T08:47:04.594Z,5.17
2017-11-25T08:48:09.281Z,5.37
2017-11-25T08:49:14.368Z,5.50
2017-11-25T08:50:19.104Z,5.46
2017-11-25T08:51:23.921Z,5.14
2017-11-25T08:52:28.509Z,5.45
2017-11-25T08:53:33.258Z,5.64
2017-11-25T08:54:37.844Z,5.85
2017-11-25T08:55:42.740Z,5.79
2017-11-25T08:56:47.344Z,5.49
2017-11-25T08:57:52.079Z,5.25
2017-11-25T08:58:56.829Z,5.16
2017-11-25T09:00:01.622Z,4.97
2017-11-25T09:01:06.333Z,5.04
2017-11-25T09:02:11.369Z,5.18
2017-11-25T09:03:16.055Z,5.30
2017-11-25T09:04:20.799Z,5.28
2017-11-25T09:05:25.614Z,5.34
2017-11-25T09:06:30.442Z,5.41
2017-11-25T09:07:35.446Z,5.46
2017-11-25T09:08:40.899Z,5.25
2017-11-25T09:09:46.188Z,5.19
2017-11-25T09:10:50.812Z,5.27
2017-11-25T09:11:55.453Z,5.56
2017-11-25T09:13:01.007Z,5.35
2017-11-25T09:14:05.830Z,5.37
2017-11-25T09:15:11.116Z,5.43
2017-11-25T09:16:15.884Z,5.36
2017-11-25T09:17:20.635Z,5.31
2017-11-25T09:18:25.381Z,5.18
2017-11-25T09:19:30.154Z,5.23
2017-11-25T09:20:34.890Z,5.20
2017-11-25T09:21:39.923Z,5.01
2017-11-25T09:22:44.630Z,5.01
2017-11-25T09:23:49.597Z,5.00
2017-11-25T09:24:54.261Z,5.35
2017-11-25T09:25:59.049Z,5.52
2017-11-25T09:27:03.784Z,5.58
2017-11-25T09:28:08.847Z,5.54
2017-11-25T09:29:16.650Z,5.56
2017-11-25T09:30:21.468Z,5.36
2017-11-25T09:31:26.289Z,5.53
2017-11-25T09:32:31.005Z,5.48
2017-11-25T09:33:35.676Z,5.14
2017-11-25T09:34:40.704Z,5.41
2017-11-25T09:35:45.391Z,5.71
2017-11-25T09:36:50.139Z,5.72
2017-11-25T09:37:54.911Z,5.82
2017-11-25T09:38:59.635Z,5.79
2017-11-25T09:40:04.426Z,5.48
2017-11-25T09:42:31.457Z,5.57
2017-11-25T09:43:36.166Z,5.44
2017-11-25T09:44:40.960Z,5.63
2017-11-25T09:45:45.501Z,5.80
2017-11-25T09:46:50.153Z,5.74
2017-11-25T09:47:54.724Z,5.60
2017-11-25T09:48:59.541Z,5.60
2017-11-25T09:50:04.338Z,5.61
2017-11-25T09:51:08.897Z,5.61
2017-11-25T09:52:13.570Z,5.64
2017-11-25T09:53:18.111Z,5.26
2017-11-25T09:54:22.816Z,5.53
2017-11-25T09:55:27.864Z,5.52
2017-11-25T09:56:32.611Z,5.78
2017-11-25T09:57:37.499Z,5.46
2017-11-25T09:58:42.224Z,5.59
2017-11-25T09:59:47.134Z,5.42
2017-11-25T10:00:52.421Z,5.54
2017-11-25T10:01:57.248Z,5.58
2017-11-25T10:03:02.287Z,5.60
2017-11-25T10:04:07.035Z,5.66
2017-11-25T10:05:11.749Z,5.57
2017-11-25T10:06:16.589Z,5.42
2017-11-25T10:07:21.700Z,5.52
2017-11-25T10:08:26.441Z,5.37
2017-11-25T10:09:31.472Z,5.44
2017-11-25T10:10:36.298Z,5.05
2017-11-25T10:11:40.930Z,5.21
2017-11-25T10:12:45.649Z,5.31
2017-11-25T10:13:50.866Z,5.23
2017-11-25T10:14:55.798Z,5.18
2017-11-25T10:16:00.538Z,5.02
2017-11-25T10:17:05.715Z,5.26
2017-11-25T10:18:10.483Z,5.13
2017-11-25T10:19:15.118Z,5.29
2017-11-25T10:20:19.831Z,5.40
2017-11-25T10:21:24.478Z,5.38
2017-11-25T10:22:29.177Z,5.45
2017-11-25T10:23:36.996Z,5.26
2017-11-25T10:24:41.779Z,5.08
2017-11-25T10:25:46.853Z,5.09
2017-11-25T10:26:51.496Z,5.24
2017-11-25T10:27:56.239Z,5.43
2017-11-25T10:29:00.972Z,5.29
2017-11-25T10:30:07.172Z,5.19
2017-11-25T10:31:12.112Z,5.03
2017-11-25T10:32:16.870Z,5.14
2017-11-25T10:33:21.587Z,5.28
2017-11-25T10:34:26.344Z,5.22
2017-11-25T10:35:31.217Z,5.30
2017-11-25T10:36:36.067Z,5.25
2017-11-25T10:37:41.374Z,5.13
2017-11-25T10:38:46.322Z,5.06
2017-11-25T10:39:51.143Z,5.20
2017-11-25T10:40:55.917Z,5.19
2017-11-25T10:42:00.607Z,5.33
2017-11-25T10:43:05.481Z,5.31
2017-11-25T10:44:10.524Z,5.35
2017-11-25T10:45:15.471Z,5.36
2017-11-25T10:46:20.385Z,5.52
2017-11-25T10:47:25.132Z,5.31
2017-11-25T10:48:29.772Z,5.31
2017-11-25T10:49:34.599Z,5.15
2017-11-25T10:50:39.794Z,5.03
2017-11-25T10:51:44.584Z,5.21
2017-11-25T10:52:49.685Z,5.18
2017-11-25T10:53:54.537Z,4.97
2017-11-25T10:54:59.590Z,5.25
2017-11-25T10:56:04.331Z,5.41
2017-11-25T10:57:09.115Z,5.56
2017-11-25T10:58:13.924Z,5.36
2017-11-25T10:59:18.904Z,5.14
2017-11-25T11:15:41.410Z,5.12
2017-11-25T11:16:46.165Z,5.10
2017-11-25T11:17:51.167Z,5.13
2017-11-25T11:18:56.407Z,5.19
2017-11-25T11:20:01.625Z,5.29
2017-11-25T11:21:06.799Z,5.10
2017-11-25T11:22:12.143Z,5.06
2017-11-25T11:23:16.970Z,4.99
2017-11-25T11:24:22.637Z,5.01
2017-11-25T11:25:27.659Z,4.95
2017-11-25T11:26:32.459Z,4.94
2017-11-25T11:27:37.437Z,4.89
2017-11-25T11:28:42.320Z,4.94
2017-11-25T11:29:47.383Z,5.04
2017-11-25T11:30:52.278Z,4.98
2017-11-25T11:31:57.225Z,5.10
2017-11-25T11:33:02.458Z,5.16
2017-11-25T11:34:07.210Z,4.95
2017-11-25T11:35:12.053Z,4.82
2017-11-25T11:36:16.851Z,4.81
2017-11-25T11:37:21.412Z,4.79
2017-11-25T11:38:26.522Z,4.92
2017-11-25T11:39:31.517Z,4.96
2017-11-25T11:40:36.400Z,4.95
2017-11-25T11:41:41.195Z,4.58
2017-11-25T11:42:46.371Z,4.62
2017-11-25T11:43:51.359Z,4.70
2017-11-25T11:44:56.620Z,4.98
2017-11-25T11:46:01.690Z,5.08
2017-11-25T11:47:07.348Z,5.04
2017-11-25T11:48:12.122Z,4.94
2017-11-25T11:49:17.059Z,4.96
2017-11-25T11:50:22.386Z,4.99
2017-11-25T11:51:27.735Z,4.78
2017-11-25T11:52:32.683Z,4.90
2017-11-25T11:53:37.530Z,5.10
2017-11-25T11:54:42.767Z,4.97
2017-11-25T11:55:47.687Z,4.44
2017-11-25T11:56:52.784Z,4.67
2017-11-25T11:57:57.979Z,4.86
2017-11-25T11:59:03.132Z,4.84
2017-11-25T12:00:08.310Z,4.68
2017-11-25T12:01:13.228Z,4.82
2017-11-25T12:02:18.433Z,4.80
2017-11-25T12:03:24.058Z,4.82
2017-11-25T12:04:29.105Z,4.79
2017-11-25T12:05:34.135Z,4.64
2017-11-25T12:06:39.285Z,4.78
2017-11-25T12:07:44.334Z,4.82
2017-11-25T12:08:49.392Z,4.72
2017-11-25T12:09:55.475Z,4.30
2017-11-25T12:11:00.695Z,4.58
2017-11-25T12:12:07.042Z,4.79
2017-11-25T12:13:12.040Z,4.51
2017-11-25T12:14:17.086Z,4.73
2017-11-25T12:15:21.982Z,4.59
2017-11-25T12:16:27.361Z,4.42
2017-11-25T12:17:32.344Z,4.72
2017-11-25T12:18:37.179Z,4.55
2017-11-25T12:19:42.207Z,4.38
2017-11-25T12:20:47.146Z,4.34
2017-11-25T12:21:52.244Z,4.33
2017-11-25T12:22:58.239Z,4.40
2017-11-25T12:24:03.409Z,4.33
2017-11-25T12:25:09.434Z,4.32
2017-11-25T12:26:14.446Z,4.24
2017-11-25T12:27:19.475Z,4.45
2017-11-25T12:28:24.324Z,4.42
2017-11-25T12:29:29.404Z,4.23
2017-11-25T12:30:34.207Z,3.93
2017-11-25T12:31:39.025Z,3.78
2017-11-25T12:32:43.858Z,3.81
2017-11-25T12:33:48.734Z,3.79
2017-11-25T12:34:53.625Z,3.74
2017-11-25T12:35:58.992Z,3.62
2017-11-25T12:37:03.903Z,3.51
2017-11-25T12:38:08.680Z,3.36
2017-11-25T12:39:14.344Z,3.48
2017-11-25T12:40:19.186Z,3.22
2017-11-25T12:41:24.107Z,3.75
2017-11-25T12:42:29.326Z,3.69
2017-11-25T12:43:34.389Z,3.67
2017-11-25T12:44:39.216Z,3.65
2017-11-25T12:45:44.138Z,3.80
2017-11-25T12:46:49.227Z,3.71
2017-11-25T12:47:54.085Z,3.64
2017-11-25T12:48:59.397Z,3.76
2017-11-25T12:50:04.272Z,3.84
2017-11-25T12:51:09.191Z,3.93
2017-11-25T12:52:13.987Z,4.00
2017-11-25T12:53:18.768Z,3.81
2017-11-25T12:54:23.760Z,3.74
2017-11-25T12:55:28.884Z,3.78
2017-11-25T12:56:33.769Z,3.69
2017-11-25T12:57:38.543Z,3.86
2017-11-25T12:58:43.575Z,4.11
2017-11-25T12:59:48.634Z,3.94
2017-11-25T13:00:53.796Z,3.88
2017-11-25T13:01:59.141Z,4.05
2017-11-25T13:03:04.001Z,3.69
2017-11-25T13:04:08.906Z,3.82
2017-11-25T13:05:13.776Z,3.68
2017-11-25T13:06:18.710Z,3.75
2017-11-25T13:07:23.427Z,3.90
2017-11-25T13:08:28.289Z,3.79
2017-11-25T13:09:33.082Z,3.66
2017-11-25T13:10:37.865Z,3.73
2017-11-25T13:11:42.678Z,3.84
2017-11-25T13:12:47.593Z,3.75
2017-11-25T13:13:52.880Z,3.74
2017-11-25T13:14:57.693Z,3.80
2017-11-25T13:16:02.590Z,3.79
2017-11-25T13:17:07.429Z,3.90
2017-11-25T13:18:12.240Z,3.64
2017-11-25T13:19:17.033Z,3.71
2017-11-25T13:20:23.022Z,3.93
2017-11-25T13:21:28.030Z,3.58
2017-11-25T13:22:32.852Z,3.59
2017-11-25T13:23:37.650Z,3.51
2017-11-25T13:24:42.524Z,3.53
2017-11-25T13:25:47.366Z,3.20
2017-11-25T13:26:52.723Z,3.36
2017-11-25T13:27:57.578Z,3.56
2017-11-25T13:29:02.531Z,3.32
2017-11-25T13:30:07.396Z,3.50
2017-11-25T13:31:12.238Z,3.86
2017-11-25T13:32:17.101Z,3.46
2017-11-25T13:33:22.160Z,3.64
2017-11-25T13:34:26.973Z,3.61
2017-11-25T13:35:31.812Z,3.50
2017-11-25T13:36:36.607Z,3.75
2017-11-25T13:37:41.487Z,3.25
2017-11-25T13:38:46.284Z,3.51
2017-11-25T13:39:51.413Z,3.74
2017-11-25T13:40:56.338Z,3.62
2017-11-25T13:42:01.958Z,3.41
2017-11-25T13:43:06.749Z,3.16
2017-11-25T13:44:11.574Z,3.26
2017-11-25T13:45:16.398Z,3.54
2017-11-25T13:46:21.735Z,3.81
2017-11-25T13:47:26.597Z,3.32
2017-11-25T13:48:31.509Z,3.37
2017-11-25T13:49:36.274Z,3.42
2017-11-25T13:50:41.064Z,3.48
2017-11-25T13:51:45.947Z,3.66
2017-11-25T13:52:50.809Z,3.91
2017-11-25T13:53:56.603Z,3.91
2017-11-25T13:55:01.452Z,4.23
2017-11-25T13:56:06.892Z,3.72
2017-11-25T13:57:11.752Z,3.97
2017-11-25T13:58:17.039Z,4.03
2017-11-25T13:59:21.886Z,4.15
2017-11-25T14:00:26.802Z,4.28
2017-11-25T14:01:31.633Z,4.08
2017-11-25T14:02:36.646Z,4.17
2017-11-25T14:03:41.749Z,4.04
2017-11-25T14:04:47.037Z,4.09
2017-11-25T14:05:51.956Z,4.25
2017-11-25T14:06:56.774Z,4.34
2017-11-25T14:08:02.032Z,4.27
2017-11-25T14:09:06.965Z,4.12
2017-11-25T14:10:11.870Z,3.66
2017-11-25T14:11:17.021Z,3.90
2017-11-25T14:12:21.806Z,4.20
2017-11-25T14:13:26.614Z,4.21
2017-11-25T14:14:31.403Z,4.22
2017-11-25T14:15:36.216Z,3.97
2017-11-25T14:16:41.058Z,3.58
2017-11-25T14:17:46.300Z,3.86
2017-11-25T14:18:51.171Z,3.93
2017-11-25T14:19:56.063Z,3.70
2017-11-25T14:21:00.933Z,3.42
2017-11-25T14:22:05.776Z,3.69
2017-11-25T14:23:10.640Z,3.92
2017-11-25T14:24:15.445Z,3.94
2017-11-25T14:25:20.340Z,3.53
2017-11-25T14:26:25.137Z,3.96
2017-11-25T14:27:30.065Z,3.86
2017-11-25T14:28:34.856Z,3.77
2017-11-25T14:29:39.664Z,3.66
2017-11-25T14:30:44.601Z,3.59
2017-11-25T14:31:49.422Z,3.63
2017-11-25T14:32:54.285Z,3.87
2017-11-25T14:33:59.208Z,3.92
2017-11-25T14:35:04.094Z,3.67
2017-11-25T14:36:09.342Z,3.48
2017-11-25T14:37:14.171Z,3.92
2017-11-25T14:38:18.925Z,3.75
2017-11-25T14:39:23.782Z,3.62
2017-11-25T14:40:28.564Z,3.55
2017-11-25T14:41:33.319Z,3.98
2017-11-25T14:42:38.441Z,3.66
2017-11-25T14:43:43.246Z,3.57
2017-11-25T14:44:48.005Z,3.85
2017-11-25T14:45:52.941Z,3.79
2017-11-25T14:46:57.820Z,3.99
2017-11-25T14:48:02.615Z,3.71
2017-11-25T14:49:07.729Z,3.97
2017-11-25T14:50:12.561Z,4.05
2017-11-25T14:51:17.320Z,4.10
2017-11-25T14:52:22.115Z,3.96
2017-11-25T14:53:27.033Z,3.63
2017-11-25T14:54:31.818Z,3.52
2017-11-25T14:55:37.136Z,3.87
2017-11-25T14:56:41.992Z,3.95
2017-11-25T14:57:46.750Z,3.63
2017-11-25T14:58:51.484Z,3.68
2017-11-25T14:59:56.535Z,3.85
2017-11-25T15:01:02.020Z,4.04
2017-11-25T15:02:07.268Z,3.91
2017-11-25T15:03:12.204Z,4.03
2017-11-25T15:04:17.270Z,3.90
2017-11-25T15:05:22.297Z,3.69
2017-11-25T15:06:27.237Z,3.73
2017-11-25T15:07:32.128Z,3.52
2017-11-25T15:08:37.364Z,3.81
2017-11-25T15:09:42.273Z,3.69
2017-11-25T15:10:47.257Z,3.62
2017-11-25T15:11:52.273Z,3.83
2017-11-25T15:12:57.299Z,3.96
2017-11-25T15:14:02.224Z,3.80
2017-11-25T15:15:07.528Z,3.48
2017-11-25T15:16:12.378Z,3.49
2017-11-25T15:17:17.053Z,3.72
2017-11-25T15:18:21.760Z,3.61
2017-11-25T15:19:26.563Z,3.57
2017-11-25T15:20:31.411Z,3.69
2017-11-25T15:21:36.626Z,3.76
2017-11-25T15:22:41.742Z,3.56
2017-11-25T15:23:46.729Z,3.67
2017-11-25T15:24:52.574Z,3.65
2017-11-25T15:25:57.760Z,3.59
2017-11-25T15:27:02.722Z,3.46
2017-11-25T15:28:07.906Z,3.68
2017-11-25T15:29:13.299Z,3.59
2017-11-25T15:30:18.264Z,3.59
2017-11-25T15:31:23.096Z,3.54
2017-11-25T15:32:28.065Z,3.45
2017-11-25T15:33:33.039Z,3.54
2017-11-25T15:34:38.327Z,3.53
2017-11-25T15:35:43.257Z,3.49
2017-11-25T15:36:48.259Z,3.40
2017-11-25T15:37:53.230Z,3.47
2017-11-25T15:38:58.083Z,3.31
2017-11-25T15:40:03.254Z,3.41
2017-11-25T15:41:08.405Z,3.52
2017-11-25T15:42:13.351Z,3.56
2017-11-25T15:43:18.253Z,3.66
2017-11-25T15:44:23.314Z,3.52
2017-11-25T15:45:28.455Z,3.31
2017-11-25T15:46:33.489Z,3.54
2017-11-25T15:47:38.889Z,3.62
2017-11-25T15:48:43.856Z,3.83
2017-11-25T15:49:48.940Z,3.73
2017-11-25T15:50:54.105Z,3.55
2017-11-25T15:51:59.010Z,3.59
2017-11-25T15:53:04.843Z,3.61
2017-11-25T15:54:09.836Z,3.53
2017-11-25T15:55:14.813Z,3.38
2017-11-25T15:56:20.327Z,3.51
2017-11-25T15:57:25.256Z,3.34
2017-11-25T15:58:30.236Z,3.57
2017-11-25T15:59:35.008Z,3.44
2017-11-25T16:00:40.718Z,3.58
2017-11-25T16:01:45.536Z,3.26
2017-11-25T16:02:50.431Z,3.35
2017-11-25T16:03:55.320Z,3.64
2017-11-25T16:05:00.084Z,3.26
2017-11-25T16:06:04.869Z,3.55
2017-11-25T16:07:09.950Z,3.40
2017-11-25T16:08:14.997Z,3.45
2017-11-25T16:09:19.928Z,3.49
2017-11-25T16:10:24.880Z,3.42
2017-11-25T16:11:29.665Z,3.39
2017-11-25T16:12:35.561Z,3.54
2017-11-25T16:13:40.707Z,3.49
2017-11-25T16:14:45.524Z,3.31
2017-11-25T16:15:50.389Z,3.49
2017-11-25T16:16:55.290Z,3.39
2017-11-25T16:18:00.241Z,3.44
2017-11-25T16:19:05.095Z,3.52
2017-11-25T16:20:10.329Z,3.52
2017-11-25T16:21:15.141Z,3.66
2017-11-25T16:22:20.024Z,3.50
2017-11-25T16:23:24.834Z,3.41
2017-11-25T16:24:30.014Z,3.61
2017-11-25T16:25:34.865Z,3.51
2017-11-25T16:26:47.323Z,3.62
2017-11-25T16:27:52.100Z,3.57
2017-11-25T16:28:56.952Z,3.15
2017-11-25T16:30:02.964Z,3.01
2017-11-25T16:31:08.016Z,3.09
2017-11-25T16:32:14.910Z,3.13
2017-11-25T16:33:20.275Z,3.12
2017-11-25T16:34:25.140Z,3.32
2017-11-25T16:35:29.811Z,3.08
2017-11-25T16:36:34.719Z,3.01
2017-11-25T16:37:39.822Z,2.99
2017-11-25T16:38:44.787Z,2.95
2017-11-25T16:39:50.218Z,2.96
2017-11-25T16:40:55.089Z,3.14
2017-11-25T16:41:59.950Z,2.91
2017-11-25T16:43:04.901Z,2.83
2017-11-25T17:00:42.499Z,3.48
2017-11-25T17:01:47.357Z,3.69
2017-11-25T17:02:52.048Z,3.70
2017-11-25T17:03:57.178Z,3.23
2017-11-25T17:05:01.912Z,3.12
2017-11-25T17:06:07.103Z,3.19
2017-11-25T17:07:12.078Z,3.17
2017-11-25T17:08:16.951Z,3.31
2017-11-25T17:09:21.920Z,3.47
2017-11-25T17:10:26.673Z,3.19
2017-11-25T17:11:31.410Z,3.39
2017-11-25T17:12:36.605Z,3.45
2017-11-25T17:13:41.356Z,3.10
2017-11-25T17:14:46.175Z,3.29
2017-11-25T17:15:50.938Z,3.47
2017-11-25T17:16:55.824Z,3.28
2017-11-25T17:18:00.845Z,3.30
2017-11-25T17:19:05.588Z,3.29
2017-11-25T17:20:10.380Z,3.39
2017-11-25T17:21:15.177Z,3.20
2017-11-25T17:22:20.002Z,3.28
2017-11-25T17:23:24.757Z,3.30
2017-11-25T17:24:29.979Z,3.19
2017-11-25T17:25:34.686Z,3.08
2017-11-25T17:26:39.481Z,3.36
2017-11-25T17:27:44.472Z,3.50
2017-11-25T17:28:49.350Z,3.35
2017-11-25T17:29:54.367Z,3.15
2017-11-25T17:30:59.470Z,3.23
2017-11-25T17:32:04.403Z,3.24
2017-11-25T17:33:09.401Z,2.95
2017-11-25T17:34:14.774Z,2.77
2017-11-25T17:35:19.831Z,3.22
2017-11-25T17:36:24.901Z,2.93
2017-11-25T17:37:30.692Z,2.74
2017-11-25T17:38:35.277Z,2.66
2017-11-25T17:39:40.252Z,2.64
2017-11-25T17:40:45.697Z,3.03
2017-11-25T17:41:50.468Z,3.11
2017-11-25T17:42:55.200Z,2.92
2017-11-25T17:44:00.603Z,2.92
2017-11-25T17:45:05.855Z,3.04
2017-11-25T17:46:10.837Z,3.00
2017-11-25T17:47:15.836Z,3.06
2017-11-25T17:48:20.589Z,3.18
2017-11-25T17:49:25.266Z,3.15
2017-11-25T17:50:30.463Z,3.36
2017-11-25T17:51:35.402Z,3.22
2017-11-25T17:52:40.437Z,3.37
2017-11-25T17:53:45.440Z,3.35
2017-11-25T17:54:50.438Z,3.38
2017-11-25T17:55:55.228Z,3.36
2017-11-25T17:57:00.743Z,3.28
2017-11-25T17:58:05.651Z,3.15
2017-11-25T17:59:10.429Z,3.29
2017-11-25T18:00:15.171Z,3.12
2017-11-25T18:01:20.176Z,3.01
2017-11-25T18:02:24.935Z,3.15
2017-11-25T18:03:30.171Z,3.01
2017-11-25T18:04:34.935Z,3.29
2017-11-25T18:05:39.893Z,3.14
2017-11-25T18:06:44.631Z,3.00
2017-11-25T18:07:49.581Z,3.11
2017-11-25T18:08:54.335Z,3.17
2017-11-25T18:09:59.562Z,2.87
2017-11-25T18:11:04.431Z,2.96
2017-11-25T18:12:09.163Z,3.22
2017-11-25T18:13:13.821Z,2.96
2017-11-25T18:14:18.570Z,2.83
2017-11-25T18:15:23.320Z,2.97
2017-11-25T18:16:28.270Z,2.93
2017-11-25T18:17:33.171Z,2.93
2017-11-25T18:18:38.133Z,2.82
2017-11-25T18:19:42.846Z,2.98
2017-11-25T18:20:47.572Z,3.05
2017-11-25T18:21:52.519Z,3.19
2017-11-25T18:22:58.853Z,3.16
2017-11-25T18:24:04.155Z,3.13
2017-11-25T18:25:09.254Z,3.18
2017-11-25T18:26:14.040Z,3.30
2017-11-25T18:27:18.771Z,3.04
2017-11-25T18:28:23.595Z,3.08
2017-11-25T18:29:28.861Z,3.10
2017-11-25T18:30:33.876Z,3.00
2017-11-25T18:31:38.566Z,3.23
2017-11-25T18:32:43.393Z,3.07
2017-11-25T18:33:48.858Z,2.93
2017-11-25T18:34:53.558Z,2.96
2017-11-25T18:35:58.627Z,3.00
2017-11-25T18:37:04.489Z,2.84
2017-11-25T18:38:09.445Z,3.07
2017-11-25T18:39:14.672Z,3.05
2017-11-25T18:40:19.929Z,3.09
2017-11-25T18:41:24.912Z,2.98
2017-11-25T18:42:30.258Z,2.96
2017-11-25T18:43:35.014Z,2.95
2017-11-25T18:44:39.811Z,3.02
2017-11-25T18:45:44.749Z,3.02
2017-11-25T18:46:49.600Z,2.88
2017-11-25T18:47:54.402Z,2.98
2017-11-25T18:48:59.722Z,3.75
2017-11-25T18:50:05.269Z,3.73
2017-11-25T18:51:10.215Z,3.69
2017-11-25T18:52:15.123Z,3.61
2017-11-25T18:53:20.046Z,3.21
2017-11-25T18:54:25.546Z,3.16
2017-11-25T18:55:30.998Z,3.19
2017-11-25T18:56:36.092Z,3.14
2017-11-25T18:57:40.998Z,3.02
2017-11-25T18:58:46.006Z,3.00
2017-11-25T18:59:51.076Z,2.98
2017-11-25T19:00:56.095Z,3.00
2017-11-25T19:02:01.611Z,2.65
2017-11-25T19:03:06.692Z,2.48
2017-11-25T19:04:11.671Z,2.19
2017-11-25T19:05:16.598Z,2.33
2017-11-25T19:06:21.622Z,2.33
2017-11-25T19:07:26.473Z,2.33
2017-11-25T19:08:31.894Z,2.27
2017-11-25T19:09:36.669Z,2.20
2017-11-25T19:10:41.519Z,2.29
2017-11-25T19:11:46.524Z,2.28
2017-11-25T19:12:51.267Z,2.23
2017-11-25T19:13:56.374Z,2.33
2017-11-25T19:15:01.764Z,2.13
2017-11-25T19:16:06.699Z,2.35
2017-11-25T19:17:11.652Z,2.20
2017-11-25T19:18:16.558Z,2.17
2017-11-25T19:19:21.679Z,2.25
2017-11-25T19:20:26.663Z,2.27
2017-11-25T19:21:32.148Z,2.38
2017-11-25T19:22:37.144Z,2.08
2017-11-25T19:23:42.172Z,2.15
2017-11-25T19:24:47.123Z,2.17
2017-11-25T19:25:52.932Z,2.17
2017-11-25T19:26:57.901Z,2.05
2017-11-25T19:28:03.515Z,1.76
2017-11-25T19:29:08.833Z,2.20
2017-11-25T19:30:13.545Z,1.87
2017-11-25T19:31:18.831Z,1.99
2017-11-25T19:32:23.659Z,1.95
2017-11-25T19:33:28.473Z,1.89
2017-11-25T19:34:33.602Z,2.18
2017-11-25T19:35:38.346Z,1.95
2017-11-25T19:36:43.288Z,1.94
2017-11-25T19:37:48.289Z,2.10
2017-11-25T19:38:53.299Z,1.96
2017-11-25T19:39:58.362Z,1.74
2017-11-25T19:41:04.011Z,2.21
2017-11-25T19:42:09.017Z,2.06
2017-11-25T19:43:13.982Z,1.91
2017-11-25T19:44:19.087Z,1.99
2017-11-25T19:45:24.053Z,2.05
2017-11-25T19:46:28.896Z,1.84
2017-11-25T19:47:34.270Z,2.01
2017-11-25T19:48:38.987Z,1.87
2017-11-25T19:49:43.951Z,1.75
2017-11-25T19:50:48.663Z,1.90
2017-11-25T19:51:54.052Z,1.56
2017-11-25T19:52:59.976Z,1.68
2017-11-25T19:54:04.989Z,1.93
2017-11-25T19:55:09.830Z,1.89
2017-11-25T19:56:14.692Z,1.83
2017-11-25T19:57:19.464Z,1.73
2017-11-25T19:58:24.132Z,1.87
2017-11-25T19:59:29.448Z,1.78
2017-11-25T20:00:34.173Z,1.86
2017-11-25T20:01:39.090Z,1.77
2017-11-25T20:02:43.845Z,1.87
2017-11-25T20:03:48.610Z,1.97
2017-11-25T20:04:53.340Z,2.00
2017-11-25T20:05:58.069Z,1.62
2017-11-25T20:07:03.237Z,1.82
2017-11-25T20:08:08.215Z,1.75
2017-11-25T20:09:12.955Z,1.69
2017-11-25T20:10:17.857Z,1.72
2017-11-25T20:11:22.998Z,1.75
2017-11-25T20:12:27.779Z,1.91